sensor_id;sensor_type;location;lat;lon;timestamp;P1;durP1;ratioP1;P2;durP2;ratioP2
56653;SDS011;45096;52.302;4.634;2023-04-03T00:02:00;1.48;;;1.35;;
56653;SDS011;45096;52.302;4.634;2023-04-03T00:04:25;1.25;;;1.25;;
56653;SDS011;45096;52.302;4.634;2023-04-03T00:06:51;1.75;;;1.33;;
56653;SDS011;45096;52.302;4.634;2023-04-03T00:09:16;1.23;;;1.13;;
56653;SDS011;45096;52.302;4.634;2023-04-03T00:11:42;1.35;;;1.30;;
56653;SDS011;45096;52.302;4.634;2023-04-03T00:14:08;1.13;;;1.10;;
56653;SDS011;45096;52.302;4.634;2023-04-03T00:16:34;1.80;;;1.10;;
56653;SDS011;45096;52.302;4.634;2023-04-03T00:18:59;1.42;;;1.17;;
56653;SDS011;45096;52.302;4.634;2023-04-03T00:21:25;1.40;;;1.30;;
56653;SDS011;45096;52.302;4.634;2023-04-03T00:23:50;1.70;;;1.60;;
56653;SDS011;45096;52.302;4.634;2023-04-03T00:26:16;2.10;;;1.90;;
56653;SDS011;45096;52.302;4.634;2023-04-03T00:28:41;1.40;;;1.30;;
56653;SDS011;45096;52.302;4.634;2023-04-03T00:31:08;1.25;;;1.20;;
56653;SDS011;45096;52.302;4.634;2023-04-03T00:33:33;1.50;;;1.40;;
56653;SDS011;45096;52.302;4.634;2023-04-03T00:35:59;1.63;;;1.40;;
56653;SDS011;45096;52.302;4.634;2023-04-03T00:38:24;1.83;;;1.20;;
56653;SDS011;45096;52.302;4.634;2023-04-03T00:40:49;1.27;;;1.17;;
56653;SDS011;45096;52.302;4.634;2023-04-03T00:43:16;1.10;;;1.00;;
56653;SDS011;45096;52.302;4.634;2023-04-03T00:45:43;1.48;;;1.33;;
56653;SDS011;45096;52.302;4.634;2023-04-03T00:48:11;1.25;;;1.15;;
56653;SDS011;45096;52.302;4.634;2023-04-03T00:50:39;1.27;;;1.17;;
56653;SDS011;45096;52.302;4.634;2023-04-03T00:53:06;1.45;;;1.35;;
56653;SDS011;45096;52.302;4.634;2023-04-03T00:55:32;1.25;;;1.25;;
56653;SDS011;45096;52.302;4.634;2023-04-03T00:57:59;2.47;;;1.35;;
56653;SDS011;45096;52.302;4.634;2023-04-03T01:00:25;1.33;;;1.23;;
56653;SDS011;45096;52.302;4.634;2023-04-03T01:02:51;1.00;;;1.00;;
56653;SDS011;45096;52.302;4.634;2023-04-03T01:05:19;1.42;;;1.42;;
56653;SDS011;45096;52.302;4.634;2023-04-03T01:07:45;1.20;;;1.10;;
56653;SDS011;45096;52.302;4.634;2023-04-03T01:10:12;1.77;;;1.10;;
56653;SDS011;45096;52.302;4.634;2023-04-03T01:12:40;1.00;;;0.98;;
56653;SDS011;45096;52.302;4.634;2023-04-03T01:15:07;1.50;;;1.20;;
56653;SDS011;45096;52.302;4.634;2023-04-03T01:17:35;1.40;;;1.30;;
56653;SDS011;45096;52.302;4.634;2023-04-03T01:20:09;2.95;;;1.45;;
56653;SDS011;45096;52.302;4.634;2023-04-03T01:22:58;1.10;;;1.10;;
56653;SDS011;45096;52.302;4.634;2023-04-03T01:25:24;2.05;;;1.38;;
56653;SDS011;45096;52.302;4.634;2023-04-03T01:27:50;1.75;;;1.13;;
56653;SDS011;45096;52.302;4.634;2023-04-03T01:30:17;1.08;;;1.08;;
56653;SDS011;45096;52.302;4.634;2023-04-03T01:32:45;1.42;;;1.20;;
56653;SDS011;45096;52.302;4.634;2023-04-03T01:35:11;1.30;;;1.30;;
56653;SDS011;45096;52.302;4.634;2023-04-03T01:37:36;1.48;;;1.38;;
56653;SDS011;45096;52.302;4.634;2023-04-03T01:40:02;1.17;;;1.05;;
56653;SDS011;45096;52.302;4.634;2023-04-03T01:42:28;1.30;;;1.17;;
56653;SDS011;45096;52.302;4.634;2023-04-03T01:44:53;1.20;;;1.20;;
56653;SDS011;45096;52.302;4.634;2023-04-03T01:47:19;1.20;;;1.20;;
56653;SDS011;45096;52.302;4.634;2023-04-03T01:49:45;2.58;;;1.02;;
56653;SDS011;45096;52.302;4.634;2023-04-03T01:52:11;1.33;;;1.20;;
56653;SDS011;45096;52.302;4.634;2023-04-03T01:54:36;1.33;;;1.27;;
56653;SDS011;45096;52.302;4.634;2023-04-03T01:57:02;2.72;;;1.20;;
56653;SDS011;45096;52.302;4.634;2023-04-03T01:59:27;1.30;;;1.20;;
56653;SDS011;45096;52.302;4.634;2023-04-03T02:01:53;3.20;;;1.40;;
56653;SDS011;45096;52.302;4.634;2023-04-03T02:04:18;1.40;;;1.30;;
56653;SDS011;45096;52.302;4.634;2023-04-03T02:06:45;1.77;;;1.30;;
56653;SDS011;45096;52.302;4.634;2023-04-03T02:09:10;1.20;;;1.17;;
56653;SDS011;45096;52.302;4.634;2023-04-03T02:11:36;1.27;;;1.27;;
56653;SDS011;45096;52.302;4.634;2023-04-03T02:14:01;1.05;;;1.05;;
56653;SDS011;45096;52.302;4.634;2023-04-03T02:16:27;1.20;;;1.20;;
56653;SDS011;45096;52.302;4.634;2023-04-03T02:18:52;1.35;;;1.25;;
56653;SDS011;45096;52.302;4.634;2023-04-03T02:21:18;1.27;;;0.93;;
56653;SDS011;45096;52.302;4.634;2023-04-03T02:23:44;1.60;;;1.20;;
56653;SDS011;45096;52.302;4.634;2023-04-03T02:26:10;2.72;;;1.35;;
56653;SDS011;45096;52.302;4.634;2023-04-03T02:28:37;1.33;;;1.10;;
56653;SDS011;45096;52.302;4.634;2023-04-03T02:31:02;1.50;;;1.17;;
56653;SDS011;45096;52.302;4.634;2023-04-03T02:33:28;1.70;;;1.27;;
56653;SDS011;45096;52.302;4.634;2023-04-03T02:35:54;1.63;;;1.35;;
56653;SDS011;45096;52.302;4.634;2023-04-03T02:38:20;1.10;;;1.08;;
56653;SDS011;45096;52.302;4.634;2023-04-03T02:40:47;1.48;;;1.23;;
56653;SDS011;45096;52.302;4.634;2023-04-03T02:43:13;2.00;;;1.25;;
56653;SDS011;45096;52.302;4.634;2023-04-03T02:45:38;2.40;;;1.20;;
56653;SDS011;45096;52.302;4.634;2023-04-03T02:48:04;2.78;;;1.45;;
56653;SDS011;45096;52.302;4.634;2023-04-03T02:50:29;1.15;;;1.05;;
56653;SDS011;45096;52.302;4.634;2023-04-03T02:52:55;1.38;;;1.30;;
56653;SDS011;45096;52.302;4.634;2023-04-03T02:55:20;1.15;;;1.10;;
56653;SDS011;45096;52.302;4.634;2023-04-03T02:57:47;3.05;;;1.40;;
56653;SDS011;45096;52.302;4.634;2023-04-03T03:00:13;1.73;;;0.98;;
56653;SDS011;45096;52.302;4.634;2023-04-03T03:02:38;1.00;;;1.00;;
56653;SDS011;45096;52.302;4.634;2023-04-03T03:05:04;1.40;;;1.30;;
56653;SDS011;45096;52.302;4.634;2023-04-03T03:07:30;2.72;;;1.33;;
56653;SDS011;45096;52.302;4.634;2023-04-03T03:09:55;1.17;;;1.08;;
56653;SDS011;45096;52.302;4.634;2023-04-03T03:12:20;1.30;;;1.15;;
56653;SDS011;45096;52.302;4.634;2023-04-03T03:14:47;1.63;;;1.30;;
56653;SDS011;45096;52.302;4.634;2023-04-03T03:17:13;1.25;;;1.20;;
56653;SDS011;45096;52.302;4.634;2023-04-03T03:19:38;1.40;;;1.30;;
56653;SDS011;45096;52.302;4.634;2023-04-03T03:22:04;1.35;;;1.25;;
56653;SDS011;45096;52.302;4.634;2023-04-03T03:24:29;1.15;;;1.15;;
56653;SDS011;45096;52.302;4.634;2023-04-03T03:26:54;1.92;;;1.25;;
56653;SDS011;45096;52.302;4.634;2023-04-03T03:29:20;2.58;;;1.50;;
56653;SDS011;45096;52.302;4.634;2023-04-03T03:31:47;1.65;;;1.20;;
56653;SDS011;45096;52.302;4.634;2023-04-03T03:34:12;1.75;;;1.27;;
56653;SDS011;45096;52.302;4.634;2023-04-03T03:36:38;1.90;;;1.42;;
56653;SDS011;45096;52.302;4.634;2023-04-03T03:39:04;1.20;;;1.20;;
56653;SDS011;45096;52.302;4.634;2023-04-03T03:41:29;1.75;;;1.00;;
56653;SDS011;45096;52.302;4.634;2023-04-03T03:43:55;1.45;;;1.42;;
56653;SDS011;45096;52.302;4.634;2023-04-03T03:46:20;1.30;;;1.20;;
56653;SDS011;45096;52.302;4.634;2023-04-03T03:48:47;1.88;;;1.60;;
56653;SDS011;45096;52.302;4.634;2023-04-03T03:51:12;1.40;;;1.35;;
56653;SDS011;45096;52.302;4.634;2023-04-03T03:53:38;4.70;;;1.60;;
56653;SDS011;45096;52.302;4.634;2023-04-03T03:56:03;1.20;;;1.20;;
56653;SDS011;45096;52.302;4.634;2023-04-03T03:58:29;1.55;;;1.15;;
56653;SDS011;45096;52.302;4.634;2023-04-03T04:00:55;1.65;;;1.15;;
56653;SDS011;45096;52.302;4.634;2023-04-03T04:03:20;1.63;;;1.23;;
56653;SDS011;45096;52.302;4.634;2023-04-03T04:05:47;1.25;;;1.23;;
56653;SDS011;45096;52.302;4.634;2023-04-03T04:08:12;1.90;;;1.60;;
56653;SDS011;45096;52.302;4.634;2023-04-03T04:10:38;1.77;;;1.67;;
56653;SDS011;45096;52.302;4.634;2023-04-03T04:13:03;3.28;;;1.58;;
56653;SDS011;45096;52.302;4.634;2023-04-03T04:15:29;1.70;;;1.50;;
56653;SDS011;45096;52.302;4.634;2023-04-03T04:17:54;1.38;;;1.27;;
56653;SDS011;45096;52.302;4.634;2023-04-03T04:20:20;2.28;;;1.58;;
56653;SDS011;45096;52.302;4.634;2023-04-03T04:22:47;1.80;;;1.70;;
56653;SDS011;45096;52.302;4.634;2023-04-03T04:25:12;1.60;;;1.50;;
56653;SDS011;45096;52.302;4.634;2023-04-03T04:27:38;2.30;;;1.55;;
56653;SDS011;45096;52.302;4.634;2023-04-03T04:30:04;1.83;;;1.40;;
56653;SDS011;45096;52.302;4.634;2023-04-03T04:32:30;1.80;;;1.70;;
56653;SDS011;45096;52.302;4.634;2023-04-03T04:34:56;2.28;;;1.67;;
56653;SDS011;45096;52.302;4.634;2023-04-03T04:37:21;1.65;;;1.55;;
56653;SDS011;45096;52.302;4.634;2023-04-03T04:39:48;1.55;;;1.45;;
56653;SDS011;45096;52.302;4.634;2023-04-03T04:42:13;1.95;;;1.83;;
56653;SDS011;45096;52.302;4.634;2023-04-03T04:44:39;1.52;;;1.50;;
56653;SDS011;45096;52.302;4.634;2023-04-03T04:47:04;1.88;;;1.70;;
56653;SDS011;45096;52.302;4.634;2023-04-03T04:49:30;1.92;;;1.48;;
56653;SDS011;45096;52.302;4.634;2023-04-03T04:51:55;2.15;;;1.52;;
56653;SDS011;45096;52.302;4.634;2023-04-03T04:54:21;2.20;;;1.20;;
56653;SDS011;45096;52.302;4.634;2023-04-03T04:56:48;2.57;;;2.10;;
56653;SDS011;45096;52.302;4.634;2023-04-03T04:59:13;6.13;;;2.92;;
56653;SDS011;45096;52.302;4.634;2023-04-03T05:01:38;8.43;;;3.85;;
56653;SDS011;45096;52.302;4.634;2023-04-03T05:04:04;4.75;;;3.25;;
56653;SDS011;45096;52.302;4.634;2023-04-03T05:06:29;5.18;;;2.90;;
56653;SDS011;45096;52.302;4.634;2023-04-03T05:08:55;3.03;;;2.78;;
56653;SDS011;45096;52.302;4.634;2023-04-03T05:11:20;4.35;;;2.97;;
56653;SDS011;45096;52.302;4.634;2023-04-03T05:13:47;4.43;;;2.90;;
56653;SDS011;45096;52.302;4.634;2023-04-03T05:16:12;4.95;;;3.00;;
56653;SDS011;45096;52.302;4.634;2023-04-03T05:18:38;3.33;;;2.50;;
56653;SDS011;45096;52.302;4.634;2023-04-03T05:21:03;3.78;;;2.22;;
56653;SDS011;45096;52.302;4.634;2023-04-03T05:23:29;3.15;;;2.75;;
56653;SDS011;45096;52.302;4.634;2023-04-03T05:25:55;2.83;;;2.30;;
56653;SDS011;45096;52.302;4.634;2023-04-03T05:28:20;4.63;;;2.50;;
56653;SDS011;45096;52.302;4.634;2023-04-03T05:30:53;3.22;;;2.55;;
56653;SDS011;45096;52.302;4.634;2023-04-03T05:33:19;3.40;;;2.58;;
56653;SDS011;45096;52.302;4.634;2023-04-03T05:35:45;2.22;;;1.90;;
56653;SDS011;45096;52.302;4.634;2023-04-03T05:38:10;3.50;;;2.70;;
56653;SDS011;45096;52.302;4.634;2023-04-03T05:40:36;3.58;;;2.20;;
56653;SDS011;45096;52.302;4.634;2023-04-03T05:43:01;2.03;;;1.85;;
56653;SDS011;45096;52.302;4.634;2023-04-03T05:45:27;3.72;;;2.67;;
56653;SDS011;45096;52.302;4.634;2023-04-03T05:47:54;3.53;;;2.03;;
56653;SDS011;45096;52.302;4.634;2023-04-03T05:50:19;2.55;;;2.28;;
56653;SDS011;45096;52.302;4.634;2023-04-03T05:52:45;2.85;;;1.83;;
56653;SDS011;45096;52.302;4.634;2023-04-03T05:55:12;4.00;;;2.33;;
56653;SDS011;45096;52.302;4.634;2023-04-03T05:57:37;2.03;;;1.90;;
56653;SDS011;45096;52.302;4.634;2023-04-03T06:00:03;3.38;;;2.47;;
56653;SDS011;45096;52.302;4.634;2023-04-03T06:02:29;2.65;;;2.13;;
56653;SDS011;45096;52.302;4.634;2023-04-03T06:04:56;3.10;;;2.08;;
56653;SDS011;45096;52.302;4.634;2023-04-03T06:07:22;2.75;;;2.22;;
56653;SDS011;45096;52.302;4.634;2023-04-03T06:09:48;1.70;;;1.70;;
56653;SDS011;45096;52.302;4.634;2023-04-03T06:12:14;2.20;;;2.10;;
56653;SDS011;45096;52.302;4.634;2023-04-03T06:14:39;4.97;;;2.28;;
56653;SDS011;45096;52.302;4.634;2023-04-03T06:17:05;2.53;;;1.75;;
56653;SDS011;45096;52.302;4.634;2023-04-03T06:19:30;1.88;;;1.77;;
56653;SDS011;45096;52.302;4.634;2023-04-03T06:21:57;3.08;;;1.85;;
56653;SDS011;45096;52.302;4.634;2023-04-03T06:24:23;3.00;;;2.17;;
56653;SDS011;45096;52.302;4.634;2023-04-03T06:26:48;2.40;;;2.20;;
56653;SDS011;45096;52.302;4.634;2023-04-03T06:29:14;4.20;;;2.03;;
56653;SDS011;45096;52.302;4.634;2023-04-03T06:31:39;2.22;;;2.03;;
56653;SDS011;45096;52.302;4.634;2023-04-03T06:34:04;6.75;;;2.30;;
56653;SDS011;45096;52.302;4.634;2023-04-03T06:36:31;2.42;;;2.22;;
56653;SDS011;45096;52.302;4.634;2023-04-03T06:38:58;2.83;;;2.00;;
56653;SDS011;45096;52.302;4.634;2023-04-03T06:41:23;2.53;;;2.33;;
56653;SDS011;45096;52.302;4.634;2023-04-03T06:43:49;2.45;;;1.88;;
56653;SDS011;45096;52.302;4.634;2023-04-03T06:46:14;2.47;;;1.83;;
56653;SDS011;45096;52.302;4.634;2023-04-03T06:48:40;2.60;;;1.83;;
56653;SDS011;45096;52.302;4.634;2023-04-03T06:51:05;2.13;;;1.80;;
56653;SDS011;45096;52.302;4.634;2023-04-03T06:53:31;1.67;;;1.58;;
56653;SDS011;45096;52.302;4.634;2023-04-03T06:55:58;3.58;;;1.77;;
56653;SDS011;45096;52.302;4.634;2023-04-03T06:58:23;4.28;;;1.95;;
56653;SDS011;45096;52.302;4.634;2023-04-03T07:00:48;2.55;;;1.83;;
56653;SDS011;45096;52.302;4.634;2023-04-03T07:03:14;2.83;;;1.88;;
56653;SDS011;45096;52.302;4.634;2023-04-03T07:05:39;7.03;;;2.65;;
56653;SDS011;45096;52.302;4.634;2023-04-03T07:08:05;3.17;;;2.30;;
56653;SDS011;45096;52.302;4.634;2023-04-03T07:10:30;2.03;;;1.85;;
56653;SDS011;45096;52.302;4.634;2023-04-03T07:12:57;1.67;;;1.50;;
56653;SDS011;45096;52.302;4.634;2023-04-03T07:15:22;3.65;;;2.08;;
56653;SDS011;45096;52.302;4.634;2023-04-03T07:17:48;1.63;;;1.52;;
56653;SDS011;45096;52.302;4.634;2023-04-03T07:20:13;3.92;;;1.48;;
56653;SDS011;45096;52.302;4.634;2023-04-03T07:22:39;3.35;;;1.85;;
56653;SDS011;45096;52.302;4.634;2023-04-03T07:25:04;2.47;;;2.10;;
56653;SDS011;45096;52.302;4.634;2023-04-03T07:27:31;6.95;;;2.55;;
56653;SDS011;45096;52.302;4.634;2023-04-03T07:29:57;7.03;;;2.22;;
56653;SDS011;45096;52.302;4.634;2023-04-03T07:32:23;4.00;;;2.15;;
56653;SDS011;45096;52.302;4.634;2023-04-03T07:34:48;5.47;;;1.92;;
56653;SDS011;45096;52.302;4.634;2023-04-03T07:37:14;2.47;;;2.03;;
56653;SDS011;45096;52.302;4.634;2023-04-03T07:39:39;4.30;;;2.25;;
56653;SDS011;45096;52.302;4.634;2023-04-03T07:42:05;6.43;;;2.50;;
56653;SDS011;45096;52.302;4.634;2023-04-03T07:44:30;6.07;;;2.35;;
56653;SDS011;45096;52.302;4.634;2023-04-03T07:46:57;2.75;;;2.10;;
56653;SDS011;45096;52.302;4.634;2023-04-03T07:49:23;4.07;;;2.15;;
56653;SDS011;45096;52.302;4.634;2023-04-03T07:51:48;3.08;;;2.00;;
56653;SDS011;45096;52.302;4.634;2023-04-03T07:54:14;6.10;;;1.75;;
56653;SDS011;45096;52.302;4.634;2023-04-03T07:56:39;3.85;;;1.63;;
56653;SDS011;45096;52.302;4.634;2023-04-03T07:59:05;2.20;;;2.00;;
56653;SDS011;45096;52.302;4.634;2023-04-03T08:01:30;2.55;;;1.85;;
56653;SDS011;45096;52.302;4.634;2023-04-03T08:03:57;4.07;;;1.80;;
56653;SDS011;45096;52.302;4.634;2023-04-03T08:06:23;2.15;;;1.98;;
56653;SDS011;45096;52.302;4.634;2023-04-03T08:08:48;2.35;;;2.00;;
56653;SDS011;45096;52.302;4.634;2023-04-03T08:11:13;3.47;;;2.60;;
56653;SDS011;45096;52.302;4.634;2023-04-03T08:13:39;3.85;;;1.83;;
56653;SDS011;45096;52.302;4.634;2023-04-03T08:16:11;2.00;;;1.60;;
56653;SDS011;45096;52.302;4.634;2023-04-03T08:18:37;2.78;;;1.85;;
56653;SDS011;45096;52.302;4.634;2023-04-03T08:21:06;2.03;;;1.75;;
56653;SDS011;45096;52.302;4.634;2023-04-03T08:23:32;2.33;;;1.45;;
56653;SDS011;45096;52.302;4.634;2023-04-03T08:25:57;3.97;;;1.98;;
56653;SDS011;45096;52.302;4.634;2023-04-03T08:28:23;1.95;;;1.83;;
56653;SDS011;45096;52.302;4.634;2023-04-03T08:30:48;4.00;;;2.03;;
56653;SDS011;45096;52.302;4.634;2023-04-03T08:33:14;3.15;;;1.73;;
56653;SDS011;45096;52.302;4.634;2023-04-03T08:35:39;2.13;;;1.92;;
56653;SDS011;45096;52.302;4.634;2023-04-03T08:38:07;2.42;;;1.35;;
56653;SDS011;45096;52.302;4.634;2023-04-03T08:40:32;3.08;;;1.50;;
56653;SDS011;45096;52.302;4.634;2023-04-03T08:43:01;5.22;;;2.00;;
56653;SDS011;45096;52.302;4.634;2023-04-03T08:45:33;1.75;;;1.65;;
56653;SDS011;45096;52.302;4.634;2023-04-03T08:48:06;5.18;;;1.70;;
56653;SDS011;45096;52.302;4.634;2023-04-03T08:50:33;6.03;;;2.28;;
56653;SDS011;45096;52.302;4.634;2023-04-03T08:53:01;3.03;;;1.42;;
56653;SDS011;45096;52.302;4.634;2023-04-03T08:55:29;1.95;;;1.70;;
56653;SDS011;45096;52.302;4.634;2023-04-03T08:57:58;2.20;;;1.83;;
56653;SDS011;45096;52.302;4.634;2023-04-03T09:00:26;3.05;;;1.50;;
56653;SDS011;45096;52.302;4.634;2023-04-03T09:02:55;3.20;;;1.65;;
56653;SDS011;45096;52.302;4.634;2023-04-03T09:05:25;1.38;;;1.15;;
56653;SDS011;45096;52.302;4.634;2023-04-03T09:07:57;2.65;;;1.60;;
56653;SDS011;45096;52.302;4.634;2023-04-03T09:10:26;1.70;;;1.02;;
56653;SDS011;45096;52.302;4.634;2023-04-03T09:12:57;1.17;;;1.17;;
56653;SDS011;45096;52.302;4.634;2023-04-03T09:15:25;3.10;;;1.20;;
56653;SDS011;45096;52.302;4.634;2023-04-03T09:17:59;1.40;;;1.27;;
56653;SDS011;45096;52.302;4.634;2023-04-03T09:20:30;2.30;;;1.30;;
56653;SDS011;45096;52.302;4.634;2023-04-03T09:23:01;2.05;;;1.17;;
56653;SDS011;45096;52.302;4.634;2023-04-03T09:25:27;1.10;;;1.10;;
56653;SDS011;45096;52.302;4.634;2023-04-03T09:27:54;2.15;;;2.00;;
56653;SDS011;45096;52.302;4.634;2023-04-03T09:30:21;2.80;;;1.30;;
56653;SDS011;45096;52.302;4.634;2023-04-03T09:32:49;3.05;;;1.33;;
56653;SDS011;45096;52.302;4.634;2023-04-03T09:35:23;1.13;;;1.10;;
56653;SDS011;45096;52.302;4.634;2023-04-03T09:37:50;1.30;;;1.20;;
56653;SDS011;45096;52.302;4.634;2023-04-03T09:40:34;3.33;;;1.35;;
56653;SDS011;45096;52.302;4.634;2023-04-03T09:43:01;1.23;;;1.13;;
56653;SDS011;45096;52.302;4.634;2023-04-03T09:45:34;1.55;;;1.02;;
56653;SDS011;45096;52.302;4.634;2023-04-03T09:48:04;1.42;;;1.10;;
56653;SDS011;45096;52.302;4.634;2023-04-03T09:50:32;3.03;;;1.35;;
56653;SDS011;45096;52.302;4.634;2023-04-03T09:52:57;1.30;;;1.20;;
56653;SDS011;45096;52.302;4.634;2023-04-03T09:55:23;1.38;;;1.20;;
56653;SDS011;45096;52.302;4.634;2023-04-03T09:57:50;2.05;;;1.13;;
56653;SDS011;45096;52.302;4.634;2023-04-03T10:00:20;6.10;;;1.40;;
56653;SDS011;45096;52.302;4.634;2023-04-03T10:02:48;3.65;;;1.70;;
56653;SDS011;45096;52.302;4.634;2023-04-03T10:08:07;2.70;;;1.00;;
56653;SDS011;45096;52.302;4.634;2023-04-03T10:10:33;1.77;;;1.50;;
56653;SDS011;45096;52.302;4.634;2023-04-03T10:13:05;2.13;;;1.27;;
56653;SDS011;45096;52.302;4.634;2023-04-03T10:15:31;1.05;;;1.00;;
56653;SDS011;45096;52.302;4.634;2023-04-03T10:18:02;1.02;;;1.02;;
56653;SDS011;45096;52.302;4.634;2023-04-03T10:20:32;1.60;;;1.50;;
56653;SDS011;45096;52.302;4.634;2023-04-03T10:23:14;3.75;;;1.85;;
56653;SDS011;45096;52.302;4.634;2023-04-03T10:25:41;1.20;;;1.17;;
56653;SDS011;45096;52.302;4.634;2023-04-03T10:28:12;1.40;;;1.30;;
56653;SDS011;45096;52.302;4.634;2023-04-03T10:30:46;2.85;;;1.30;;
56653;SDS011;45096;52.302;4.634;2023-04-03T10:36:03;1.00;;;0.95;;
56653;SDS011;45096;52.302;4.634;2023-04-03T10:38:33;1.20;;;1.20;;
56653;SDS011;45096;52.302;4.634;2023-04-03T10:41:04;1.52;;;1.42;;
56653;SDS011;45096;52.302;4.634;2023-04-03T10:43:36;0.90;;;0.90;;
56653;SDS011;45096;52.302;4.634;2023-04-03T10:46:06;0.90;;;0.90;;
56653;SDS011;45096;52.302;4.634;2023-04-03T10:48:43;3.92;;;1.20;;
56653;SDS011;45096;52.302;4.634;2023-04-03T10:51:28;2.00;;;1.00;;
56653;SDS011;45096;52.302;4.634;2023-04-03T10:53:56;1.00;;;1.00;;
56653;SDS011;45096;52.302;4.634;2023-04-03T10:56:26;1.02;;;0.90;;
56653;SDS011;45096;52.302;4.634;2023-04-03T10:58:58;1.00;;;0.95;;
56653;SDS011;45096;52.302;4.634;2023-04-03T11:01:30;3.38;;;1.20;;
56653;SDS011;45096;52.302;4.634;2023-04-03T11:03:57;0.95;;;0.90;;
56653;SDS011;45096;52.302;4.634;2023-04-03T11:06:24;0.95;;;0.88;;
56653;SDS011;45096;52.302;4.634;2023-04-03T11:08:52;3.40;;;0.90;;
56653;SDS011;45096;52.302;4.634;2023-04-03T11:11:19;3.08;;;0.98;;
56653;SDS011;45096;52.302;4.634;2023-04-03T11:13:47;1.23;;;1.10;;
56653;SDS011;45096;52.302;4.634;2023-04-03T11:16:18;1.13;;;0.93;;
56653;SDS011;45096;52.302;4.634;2023-04-03T11:18:47;2.25;;;1.25;;
56653;SDS011;45096;52.302;4.634;2023-04-03T11:21:16;0.80;;;0.80;;
56653;SDS011;45096;52.302;4.634;2023-04-03T11:23:44;2.45;;;1.02;;
56653;SDS011;45096;52.302;4.634;2023-04-03T11:26:11;0.73;;;0.70;;
56653;SDS011;45096;52.302;4.634;2023-04-03T11:28:37;1.48;;;1.17;;
56653;SDS011;45096;52.302;4.634;2023-04-03T11:31:07;2.53;;;0.98;;
56653;SDS011;45096;52.302;4.634;2023-04-03T11:33:42;0.90;;;0.90;;
56653;SDS011;45096;52.302;4.634;2023-04-03T11:36:13;2.05;;;1.20;;
56653;SDS011;45096;52.302;4.634;2023-04-03T11:38:45;2.70;;;0.75;;
56653;SDS011;45096;52.302;4.634;2023-04-03T11:41:12;2.30;;;0.70;;
56653;SDS011;45096;52.302;4.634;2023-04-03T11:43:40;1.10;;;1.05;;
56653;SDS011;45096;52.302;4.634;2023-04-03T11:46:06;1.40;;;0.93;;
56653;SDS011;45096;52.302;4.634;2023-04-03T11:48:44;1.80;;;1.15;;
56653;SDS011;45096;52.302;4.634;2023-04-03T11:54:35;0.90;;;0.90;;
56653;SDS011;45096;52.302;4.634;2023-04-03T12:08:59;1.85;;;1.33;;
56653;SDS011;45096;52.302;4.634;2023-04-03T12:11:25;1.75;;;0.93;;
56653;SDS011;45096;52.302;4.634;2023-04-03T12:14:03;0.85;;;0.85;;
56653;SDS011;45096;52.302;4.634;2023-04-03T12:16:29;1.48;;;1.20;;
56653;SDS011;45096;52.302;4.634;2023-04-03T12:19:01;1.00;;;0.90;;
56653;SDS011;45096;52.302;4.634;2023-04-03T12:24:37;1.10;;;0.95;;
56653;SDS011;45096;52.302;4.634;2023-04-03T12:27:05;1.70;;;1.00;;
56653;SDS011;45096;52.302;4.634;2023-04-03T12:29:47;1.20;;;1.10;;
56653;SDS011;45096;52.302;4.634;2023-04-03T12:32:19;1.17;;;1.17;;
56653;SDS011;45096;52.302;4.634;2023-04-03T12:34:55;0.98;;;0.88;;
56653;SDS011;45096;52.302;4.634;2023-04-03T12:40:37;0.80;;;0.80;;
56653;SDS011;45096;52.302;4.634;2023-04-03T12:43:12;1.80;;;1.23;;
56653;SDS011;45096;52.302;4.634;2023-04-03T12:45:43;1.20;;;1.10;;
56653;SDS011;45096;52.302;4.634;2023-04-03T12:48:14;1.17;;;1.10;;
56653;SDS011;45096;52.302;4.634;2023-04-03T12:50:41;0.75;;;0.70;;
56653;SDS011;45096;52.302;4.634;2023-04-03T12:53:07;0.93;;;0.82;;
56653;SDS011;45096;52.302;4.634;2023-04-03T12:55:39;2.08;;;1.00;;
56653;SDS011;45096;52.302;4.634;2023-04-03T12:58:13;1.52;;;0.88;;
56653;SDS011;45096;52.302;4.634;2023-04-03T13:00:40;1.00;;;1.00;;
56653;SDS011;45096;52.302;4.634;2023-04-03T13:03:06;1.00;;;1.00;;
56653;SDS011;45096;52.302;4.634;2023-04-03T13:05:32;0.82;;;0.80;;
56653;SDS011;45096;52.302;4.634;2023-04-03T13:07:59;1.15;;;0.70;;
56653;SDS011;45096;52.302;4.634;2023-04-03T13:10:25;1.10;;;1.10;;
56653;SDS011;45096;52.302;4.634;2023-04-03T13:12:53;1.77;;;1.33;;
56653;SDS011;45096;52.302;4.634;2023-04-03T13:15:20;1.88;;;1.00;;
56653;SDS011;45096;52.302;4.634;2023-04-03T13:17:47;2.45;;;0.80;;
56653;SDS011;45096;52.302;4.634;2023-04-03T13:20:14;1.15;;;0.90;;
56653;SDS011;45096;52.302;4.634;2023-04-03T13:22:42;1.15;;;0.98;;
56653;SDS011;45096;52.302;4.634;2023-04-03T13:25:13;2.30;;;1.10;;
56653;SDS011;45096;52.302;4.634;2023-04-03T13:27:40;1.00;;;1.00;;
56653;SDS011;45096;52.302;4.634;2023-04-03T13:30:17;2.15;;;1.25;;
56653;SDS011;45096;52.302;4.634;2023-04-03T13:32:48;1.65;;;1.15;;
56653;SDS011;45096;52.302;4.634;2023-04-03T13:35:25;1.50;;;1.50;;
56653;SDS011;45096;52.302;4.634;2023-04-03T13:38:02;1.75;;;1.45;;
56653;SDS011;45096;52.302;4.634;2023-04-03T13:40:30;2.00;;;1.40;;
56653;SDS011;45096;52.302;4.634;2023-04-03T13:42:59;1.10;;;1.10;;
56653;SDS011;45096;52.302;4.634;2023-04-03T13:45:31;1.42;;;1.33;;
56653;SDS011;45096;52.302;4.634;2023-04-03T13:50:54;1.88;;;1.25;;
56653;SDS011;45096;52.302;4.634;2023-04-03T13:53:22;2.53;;;1.15;;
56653;SDS011;45096;52.302;4.634;2023-04-03T13:55:53;2.60;;;1.10;;
56653;SDS011;45096;52.302;4.634;2023-04-03T13:58:23;1.10;;;1.10;;
56653;SDS011;45096;52.302;4.634;2023-04-03T14:00:51;1.25;;;1.20;;
56653;SDS011;45096;52.302;4.634;2023-04-03T14:03:19;1.77;;;0.90;;
56653;SDS011;45096;52.302;4.634;2023-04-03T14:05:47;2.97;;;1.13;;
56653;SDS011;45096;52.302;4.634;2023-04-03T14:08:13;1.00;;;1.00;;
56653;SDS011;45096;52.302;4.634;2023-04-03T14:10:38;1.10;;;1.10;;
56653;SDS011;45096;52.302;4.634;2023-04-03T14:13:04;1.25;;;1.15;;
56653;SDS011;45096;52.302;4.634;2023-04-03T14:15:30;2.88;;;1.20;;
56653;SDS011;45096;52.302;4.634;2023-04-03T14:18:00;1.30;;;1.20;;
56653;SDS011;45096;52.302;4.634;2023-04-03T14:20:26;1.00;;;1.00;;
56653;SDS011;45096;52.302;4.634;2023-04-03T14:22:52;0.70;;;0.70;;
56653;SDS011;45096;52.302;4.634;2023-04-03T14:25:17;0.98;;;0.98;;
56653;SDS011;45096;52.302;4.634;2023-04-03T14:27:44;1.00;;;0.90;;
56653;SDS011;45096;52.302;4.634;2023-04-03T14:30:12;1.30;;;1.17;;
56653;SDS011;45096;52.302;4.634;2023-04-03T14:32:40;1.00;;;1.00;;
56653;SDS011;45096;52.302;4.634;2023-04-03T14:35:07;0.93;;;0.93;;
56653;SDS011;45096;52.302;4.634;2023-04-03T14:37:32;0.88;;;0.80;;
56653;SDS011;45096;52.302;4.634;2023-04-03T14:39:59;2.17;;;1.30;;
56653;SDS011;45096;52.302;4.634;2023-04-03T14:42:26;1.10;;;1.10;;
56653;SDS011;45096;52.302;4.634;2023-04-03T14:44:53;1.17;;;1.10;;
56653;SDS011;45096;52.302;4.634;2023-04-03T14:47:19;3.53;;;0.95;;
56653;SDS011;45096;52.302;4.634;2023-04-03T14:49:46;1.20;;;1.10;;
56653;SDS011;45096;52.302;4.634;2023-04-03T14:52:18;1.00;;;1.00;;
56653;SDS011;45096;52.302;4.634;2023-04-03T14:54:44;1.00;;;1.00;;
56653;SDS011;45096;52.302;4.634;2023-04-03T14:57:09;1.25;;;1.15;;
56653;SDS011;45096;52.302;4.634;2023-04-03T14:59:37;1.05;;;1.05;;
56653;SDS011;45096;52.302;4.634;2023-04-03T15:02:02;0.95;;;0.95;;
56653;SDS011;45096;52.302;4.634;2023-04-03T15:04:27;1.20;;;1.10;;
56653;SDS011;45096;52.302;4.634;2023-04-03T15:06:53;2.42;;;1.25;;
56653;SDS011;45096;52.302;4.634;2023-04-03T15:09:21;1.90;;;1.10;;
56653;SDS011;45096;52.302;4.634;2023-04-03T15:11:48;1.42;;;1.33;;
56653;SDS011;45096;52.302;4.634;2023-04-03T15:14:14;1.00;;;1.00;;
56653;SDS011;45096;52.302;4.634;2023-04-03T15:16:40;1.00;;;1.00;;
56653;SDS011;45096;52.302;4.634;2023-04-03T15:19:05;1.25;;;1.15;;